Time,TemperatureF,DewpointF,PressureIn,WindDirection,WindDirectionDegrees,WindSpeedMPH,WindSpeedGustMPH,Humidity,HourlyPrecipIn,Conditions,Clouds,dailyrainin,SoftwareType,DateUTC
2013-04-22 00:02:00,37.0,23.0,-100.00,West,265,0.0,0.0,56,-99.99,,,-99.99,,2013-04-22 06:02:00,
2013-04-22 00:11:00,37.0,23.0,-100.00,West,270,0.0,0.0,56,-99.99,,,-99.99,,2013-04-22 06:11:00,
2013-04-22 00:21:00,37.0,23.0,-100.00,West,265,0.0,0.0,57,-99.99,,,-99.99,,2013-04-22 06:21:00,
2013-04-22 00:32:00,37.0,23.0,-100.00,West,270,1.0,2.0,58,-99.99,,,-99.99,,2013-04-22 06:32:00,
2013-04-22 00:41:00,37.0,23.0,-100.00,NNW,340,0.0,2.0,58,-99.99,,,-99.99,,2013-04-22 06:41:00,
2013-04-22 00:51:00,36.0,23.0,-100.00,NNW,340,1.0,1.0,59,-99.99,,,-99.99,,2013-04-22 06:51:00,
2013-04-22 01:01:00,35.0,23.0,-100.00,NNW,340,0.0,0.0,59,-99.99,,,-99.99,,2013-04-22 07:01:00,
2013-04-22 01:11:00,35.0,22.0,-100.00,NNW,340,0.0,0.0,59,-99.99,,,-99.99,,2013-04-22 07:11:00,
2013-04-22 01:21:00,35.0,23.0,-100.00,NNW,340,0.0,0.0,60,-99.99,,,-99.99,,2013-04-22 07:21:00,
2013-04-22 01:32:00,35.0,23.0,-100.00,NNW,340,0.0,0.0,62,-99.99,,,-99.99,,2013-04-22 07:32:00,
2013-04-22 01:42:00,35.0,23.0,-100.00,NNW,335,1.0,1.0,63,-99.99,,,-99.99,,2013-04-22 07:42:00,
2013-04-22 01:52:00,35.0,24.0,-100.00,NE,45,0.0,1.0,64,-99.99,,,-99.99,,2013-04-22 07:52:00,
2013-04-22 02:01:00,35.0,24.0,-100.00,NW,325,2.0,3.0,64,-99.99,,,-99.99,,2013-04-22 08:01:00,
2013-04-22 02:11:00,36.0,25.0,-100.00,NNW,345,0.0,1.0,63,-99.99,,,-99.99,,2013-04-22 08:11:00,
2013-04-22 02:22:00,36.0,25.0,-100.00,South,190,0.0,2.0,63,-99.99,,,-99.99,,2013-04-22 08:22:00,
2013-04-22 02:32:00,36.0,25.0,-100.00,NNW,330,2.0,3.0,63,-99.99,,,-99.99,,2013-04-22 08:32:00,
2013-04-22 02:41:00,36.0,25.0,-100.00,NE,40,0.0,1.0,63,-99.99,,,-99.99,,2013-04-22 08:41:00,
2013-04-22 02:52:00,37.0,25.0,-100.00,NNW,335,0.0,2.0,62,-99.99,,,-99.99,,2013-04-22 08:52:00,
2013-04-22 03:01:00,37.0,25.0,-100.00,NNE,20,1.0,2.0,62,-99.99,,,-99.99,,2013-04-22 09:01:00,
2013-04-22 03:11:00,37.0,26.0,-100.00,NNE,20,0.0,0.0,62,-99.99,,,-99.99,,2013-04-22 09:11:00,
2013-04-22 03:21:00,37.0,26.0,-100.00,NNE,20,0.0,1.0,63,-99.99,,,-99.99,,2013-04-22 09:21:00,
2013-04-22 03:33:00,37.0,26.0,-100.00,NE,40,0.0,2.0,63,-99.99,,,-99.99,,2013-04-22 09:33:00,
2013-04-22 03:42:00,37.0,26.0,-100.00,North,0,1.0,2.0,63,-99.99,,,-99.99,,2013-04-22 09:42:00,
2013-04-22 03:52:00,37.0,26.0,-100.00,SW,235,1.0,3.0,63,-99.99,,,-99.99,,2013-04-22 09:52:00,
2013-04-22 04:03:00,37.0,26.0,-100.00,West,265,0.0,2.0,63,-99.99,,,-99.99,,2013-04-22 10:03:00,
2013-04-22 04:12:00,37.0,26.0,-100.00,West,265,0.0,1.0,63,-99.99,,,-99.99,,2013-04-22 10:12:00,
2013-04-22 04:22:00,37.0,26.0,-100.00,NW,310,1.0,2.0,63,-99.99,,,-99.99,,2013-04-22 10:22:00,
2013-04-22 04:32:00,37.0,26.0,-100.00,NW,305,0.0,2.0,63,-99.99,,,-99.99,,2013-04-22 10:32:00,
2013-04-22 04:42:00,37.0,26.0,-100.00,NW,305,0.0,1.0,63,-99.99,,,-99.99,,2013-04-22 10:42:00,
2013-04-22 04:52:00,37.0,26.0,-100.00,NNE,25,0.0,4.0,64,-99.99,,,-99.99,,2013-04-22 10:52:00,
2013-04-22 05:02:00,37.0,26.0,-100.00,ENE,75,0.0,2.0,64,-99.99,,,-99.99,,2013-04-22 11:02:00,
2013-04-22 05:12:00,37.0,27.0,-100.00,NW,325,0.0,1.0,64,-99.99,,,-99.99,,2013-04-22 11:12:00,
2013-04-22 05:22:00,38.0,27.0,-100.00,NW,325,0.0,1.0,64,-99.99,,,-99.99,,2013-04-22 11:22:00,
2013-04-22 05:32:00,37.0,26.0,-100.00,NW,325,0.0,2.0,63,-99.99,,,-99.99,,2013-04-22 11:32:00,
2013-04-22 05:42:00,38.0,27.0,-100.00,SW,235,0.0,2.0,63,-99.99,,,-99.99,,2013-04-22 11:42:00,
2013-04-22 05:52:00,38.0,27.0,-100.00,North,5,0.0,2.0,64,-99.99,,,-99.99,,2013-04-22 11:52:00,
2013-04-22 06:01:00,38.0,27.0,-100.00,North,355,0.0,1.0,64,-99.99,,,-99.99,,2013-04-22 12:01:00,
2013-04-22 06:12:00,38.0,27.0,-100.00,North,355,0.0,0.0,64,-99.99,,,-99.99,,2013-04-22 12:12:00,
2013-04-22 06:21:00,38.0,27.0,-100.00,North,355,0.0,0.0,64,-99.99,,,-99.99,,2013-04-22 12:21:00,
2013-04-22 06:31:00,38.0,27.0,-100.00,WSW,250,1.0,4.0,64,-99.99,,,-99.99,,2013-04-22 12:31:00,
2013-04-22 06:42:00,38.0,27.0,-100.00,NNE,25,0.0,2.0,64,-99.99,,,-99.99,,2013-04-22 12:42:00,
2013-04-22 06:52:00,38.0,27.0,-100.00,North,10,0.0,1.0,64,-99.99,,,-99.99,,2013-04-22 12:52:00,
2013-04-22 07:01:00,38.0,27.0,-100.00,SW,225,2.0,3.0,64,-99.99,,,-99.99,,2013-04-22 13:01:00,
2013-04-22 07:11:00,38.0,27.0,-100.00,WSW,245,0.0,2.0,65,-99.99,,,-99.99,,2013-04-22 13:11:00,
2013-04-22 07:22:00,38.0,28.0,-100.00,WNW,300,0.0,2.0,65,-99.99,,,-99.99,,2013-04-22 13:22:00,
2013-04-22 07:31:00,38.0,28.0,-100.00,West,270,0.0,1.0,65,-99.99,,,-99.99,,2013-04-22 13:31:00,
2013-04-22 07:41:00,39.0,28.0,-100.00,SW,220,0.0,2.0,66,-99.99,,,-99.99,,2013-04-22 13:41:00,
2013-04-22 07:52:00,39.0,29.0,-100.00,NE,45,3.0,4.0,66,-99.99,,,-99.99,,2013-04-22 13:52:00,
2013-04-22 08:02:00,39.0,29.0,-100.00,North,10,0.0,2.0,66,-99.99,,,-99.99,,2013-04-22 14:02:00,
2013-04-22 08:11:00,40.0,29.0,-100.00,ENE,60,1.0,3.0,64,-99.99,,,-99.99,,2013-04-22 14:11:00,
2013-04-22 08:21:00,42.0,29.0,-100.00,ENE,70,0.0,2.0,61,-99.99,,,-99.99,,2013-04-22 14:21:00,
2013-04-22 08:33:00,44.0,30.0,-100.00,ESE,105,1.0,3.0,58,-99.99,,,-99.99,,2013-04-22 14:33:00,
2013-04-22 08:42:00,46.0,31.0,-100.00,ENE,70,3.0,5.0,56,-99.99,,,-99.99,,2013-04-22 14:42:00,
2013-04-22 08:51:00,47.0,30.0,-100.00,East,90,1.0,4.0,51,-99.99,,,-99.99,,2013-04-22 14:51:00,
2013-04-22 09:01:00,49.0,30.0,-100.00,SE,125,0.0,2.0,48,-99.99,,,-99.99,,2013-04-22 15:01:00,
2013-04-22 09:11:00,50.0,30.0,-100.00,South,175,2.0,3.0,45,-99.99,,,-99.99,,2013-04-22 15:11:00,
2013-04-22 09:22:00,52.0,31.0,-100.00,South,185,2.0,4.0,43,-99.99,,,-99.99,,2013-04-22 15:22:00,
2013-04-22 09:33:00,53.0,29.0,-100.00,ENE,75,4.0,6.0,39,-99.99,,,-99.99,,2013-04-22 15:33:00,
2013-04-22 09:42:00,55.0,28.0,-100.00,South,190,6.0,13.0,35,-99.99,,,-99.99,,2013-04-22 15:42:00,
2013-04-22 09:53:00,57.0,28.0,-100.00,SW,225,6.0,12.0,32,-99.99,,,-99.99,,2013-04-22 15:53:00,
2013-04-22 10:02:00,58.0,26.0,-100.00,SSE,155,4.0,14.0,30,-99.99,,,-99.99,,2013-04-22 16:02:00,
2013-04-22 10:12:00,58.0,25.0,-100.00,SE,140,6.0,15.0,28,-99.99,,,-99.99,,2013-04-22 16:12:00,
2013-04-22 10:23:00,56.0,23.0,-100.00,SE,125,3.0,17.0,26,-99.99,,,-99.99,,2013-04-22 16:23:00,
2013-04-22 10:33:00,58.0,24.0,-100.00,SSW,200,7.0,11.0,27,-99.99,,,-99.99,,2013-04-22 16:33:00,
2013-04-22 10:41:00,59.0,24.0,-100.00,SW,215,6.0,10.0,26,-99.99,,,-99.99,,2013-04-22 16:41:00,
2013-04-22 10:52:00,57.0,22.0,-100.00,SSW,195,6.0,20.0,25,-99.99,,,-99.99,,2013-04-22 16:52:00,
2013-04-22 11:02:00,57.0,22.0,-100.00,South,190,3.0,9.0,25,-99.99,,,-99.99,,2013-04-22 17:02:00,
2013-04-22 11:12:00,58.0,22.0,-100.00,SSW,200,4.0,17.0,24,-99.99,,,-99.99,,2013-04-22 17:12:00,
2013-04-22 11:22:00,60.0,24.0,-100.00,South,185,7.0,17.0,24,-99.99,,,-99.99,,2013-04-22 17:22:00,
2013-04-22 11:31:00,61.0,23.0,-100.00,SW,220,6.0,16.0,23,-99.99,,,-99.99,,2013-04-22 17:31:00,
2013-04-22 11:42:00,60.0,22.0,-100.00,SW,225,7.0,16.0,22,-99.99,,,-99.99,,2013-04-22 17:42:00,
2013-04-22 11:51:00,58.0,21.0,-100.00,SW,220,7.0,19.0,23,-99.99,,,-99.99,,2013-04-22 17:51:00,
2013-04-22 12:01:00,59.0,22.0,-100.00,East,85,1.0,11.0,23,-99.99,,,-99.99,,2013-04-22 18:01:00,
2013-04-22 12:12:00,61.0,23.0,-100.00,West,265,7.0,13.0,22,-99.99,,,-99.99,,2013-04-22 18:12:00,
2013-04-22 12:21:00,59.0,20.0,-100.00,SW,235,13.0,21.0,22,-99.99,,,-99.99,,2013-04-22 18:21:00,
2013-04-22 12:32:00,58.0,21.0,-100.00,SW,225,6.0,13.0,22,-99.99,,,-99.99,,2013-04-22 18:32:00,
2013-04-22 12:42:00,57.0,19.0,-100.00,SW,230,12.0,24.0,22,-99.99,,,-99.99,,2013-04-22 18:42:00,
2013-04-22 12:52:00,60.0,22.0,-100.00,SW,230,9.0,17.0,22,-99.99,,,-99.99,,2013-04-22 18:52:00,
2013-04-22 13:01:00,61.0,22.0,-100.00,WSW,240,9.0,17.0,21,-99.99,,,-99.99,,2013-04-22 19:01:00,
2013-04-22 13:11:00,62.0,22.0,-100.00,SW,230,11.0,21.0,21,-99.99,,,-99.99,,2013-04-22 19:11:00,
2013-04-22 13:21:00,59.0,20.0,-100.00,South,175,6.0,15.0,21,-99.99,,,-99.99,,2013-04-22 19:21:00,
2013-04-22 13:32:00,58.0,19.0,-100.00,SW,215,11.0,19.0,22,-99.99,,,-99.99,,2013-04-22 19:32:00,
2013-04-22 13:42:00,55.0,19.0,-100.00,NW,305,7.0,21.0,24,-99.99,,,-99.99,,2013-04-22 19:42:00,
2013-04-22 13:52:00,55.0,21.0,-100.00,East,95,2.0,17.0,26,-99.99,,,-99.99,,2013-04-22 19:52:00,
2013-04-22 14:02:00,54.0,21.0,-100.00,NW,320,5.0,17.0,26,-99.99,,,-99.99,,2013-04-22 20:02:00,
2013-04-22 14:11:00,58.0,22.0,-100.00,SW,215,7.0,15.0,24,-99.99,,,-99.99,,2013-04-22 20:11:00,
2013-04-22 14:22:00,59.0,22.0,-100.00,WSW,240,6.0,17.0,24,-99.99,,,-99.99,,2013-04-22 20:22:00,
2013-04-22 14:32:00,59.0,22.0,-100.00,SW,220,4.0,14.0,24,-99.99,,,-99.99,,2013-04-22 20:32:00,
2013-04-22 14:41:00,57.0,21.0,-100.00,South,175,12.0,27.0,24,-99.99,,,-99.99,,2013-04-22 20:41:00,
2013-04-22 14:51:00,55.0,21.0,-100.00,South,180,14.0,23.0,26,-99.99,,,-99.99,,2013-04-22 20:51:00,
2013-04-22 15:01:00,55.0,23.0,-100.00,South,185,8.0,18.0,28,-99.99,,,-99.99,,2013-04-22 21:01:00,
2013-04-22 15:11:00,55.0,22.0,-100.00,SSW,210,7.0,15.0,28,-99.99,,,-99.99,,2013-04-22 21:11:00,
2013-04-22 15:21:00,55.0,23.0,-100.00,SW,220,10.0,18.0,27,-99.99,,,-99.99,,2013-04-22 21:21:00,
2013-04-22 15:32:00,55.0,23.0,-100.00,SSW,200,7.0,20.0,28,-99.99,,,-99.99,,2013-04-22 21:32:00,
2013-04-22 15:42:00,56.0,25.0,-100.00,SSW,210,7.0,22.0,30,-99.99,,,-99.99,,2013-04-22 21:42:00,
2013-04-22 15:52:00,55.0,25.0,-100.00,SE,135,6.0,13.0,30,-99.99,,,-99.99,,2013-04-22 21:52:00,
2013-04-22 16:02:00,53.0,24.0,-100.00,SW,235,6.0,11.0,32,-99.99,,,-99.99,,2013-04-22 22:02:00,
2013-04-22 16:12:00,53.0,24.0,-100.00,SW,225,6.0,10.0,32,-99.99,,,-99.99,,2013-04-22 22:12:00,
2013-04-22 16:22:00,52.0,25.0,-100.00,South,175,6.0,17.0,35,-99.99,,,-99.99,,2013-04-22 22:22:00,
2013-04-22 16:33:00,54.0,27.0,-100.00,East,95,1.0,6.0,34,-99.99,,,-99.99,,2013-04-22 22:33:00,
2013-04-22 16:42:00,54.0,27.0,-100.00,ESE,115,4.0,7.0,34,-99.99,,,-99.99,,2013-04-22 22:42:00,
2013-04-22 16:52:00,53.0,26.0,-100.00,NNE,25,2.0,5.0,34,-99.99,,,-99.99,,2013-04-22 22:52:00,
2013-04-22 17:02:00,52.0,26.0,-100.00,SSW,195,6.0,13.0,36,-99.99,,,-99.99,,2013-04-22 23:02:00,
2013-04-22 17:11:00,51.0,26.0,-100.00,South,185,4.0,11.0,36,-99.99,,,-99.99,,2013-04-22 23:11:00,
2013-04-22 17:21:00,51.0,27.0,-100.00,SSW,195,6.0,17.0,39,-99.99,,,-99.99,,2013-04-22 23:21:00,
2013-04-22 17:32:00,48.0,30.0,-100.00,SW,215,10.0,16.0,48,-99.99,,,-99.99,,2013-04-22 23:32:00,
2013-04-22 17:42:00,47.0,32.0,-100.00,SSW,200,4.0,12.0,55,-99.99,,,-99.99,,2013-04-22 23:42:00,
2013-04-22 17:52:00,48.0,34.0,-100.00,ENE,65,1.0,4.0,57,-99.99,,,-99.99,,2013-04-22 23:52:00,
2013-04-22 18:01:00,49.0,34.0,-100.00,West,280,5.0,12.0,56,-99.99,,,-99.99,,2013-04-23 00:01:00,
2013-04-22 18:12:00,48.0,33.0,-100.00,SW,215,2.0,7.0,56,-99.99,,,-99.99,,2013-04-23 00:12:00,
2013-04-22 18:21:00,48.0,33.0,-100.00,SW,220,1.0,2.0,56,-99.99,,,-99.99,,2013-04-23 00:21:00,
2013-04-22 18:31:00,49.0,34.0,-100.00,ENE,75,3.0,4.0,55,-99.99,,,-99.99,,2013-04-23 00:31:00,
2013-04-22 18:42:00,49.0,34.0,-100.00,ENE,70,3.0,6.0,55,-99.99,,,-99.99,,2013-04-23 00:42:00,
2013-04-22 18:51:00,49.0,34.0,-100.00,ENE,70,5.0,6.0,55,-99.99,,,-99.99,,2013-04-23 00:51:00,
2013-04-22 19:01:00,49.0,34.0,-100.00,ENE,65,6.0,9.0,55,-99.99,,,-99.99,,2013-04-23 01:01:00,
2013-04-22 19:11:00,48.0,33.0,-100.00,ENE,75,5.0,11.0,55,-99.99,,,-99.99,,2013-04-23 01:11:00,
2013-04-22 19:21:00,48.0,33.0,-100.00,ENE,75,2.0,6.0,56,-99.99,,,-99.99,,2013-04-23 01:21:00,
2013-04-22 19:32:00,47.0,32.0,-100.00,SW,215,0.0,7.0,54,-99.99,,,-99.99,,2013-04-23 01:32:00,
2013-04-22 19:42:00,47.0,29.0,-100.00,SE,125,2.0,12.0,49,-99.99,,,-99.99,,2013-04-23 01:42:00,
2013-04-22 19:52:00,47.0,29.0,-100.00,SW,230,6.0,12.0,48,-99.99,,,-99.99,,2013-04-23 01:52:00,
2013-04-22 20:01:00,46.0,28.0,-100.00,South,180,7.0,21.0,50,-99.99,,,-99.99,,2013-04-23 02:01:00,
2013-04-22 20:12:00,45.0,28.0,-100.00,SW,230,6.0,18.0,50,-99.99,,,-99.99,,2013-04-23 02:12:00,
2013-04-22 20:21:00,44.0,28.0,-100.00,SW,220,4.0,16.0,53,-99.99,,,-99.99,,2013-04-23 02:21:00,
2013-04-22 20:32:00,44.0,29.0,-100.00,South,185,2.0,10.0,54,-99.99,,,-99.99,,2013-04-23 02:32:00,
2013-04-22 20:42:00,44.0,29.0,-100.00,SE,145,1.0,3.0,55,-99.99,,,-99.99,,2013-04-23 02:42:00,
2013-04-22 20:52:00,44.0,29.0,-100.00,NW,320,1.0,3.0,56,-99.99,,,-99.99,,2013-04-23 02:52:00,
2013-04-22 21:01:00,43.0,29.0,-100.00,NNW,345,2.0,4.0,57,-99.99,,,-99.99,,2013-04-23 03:01:00,
2013-04-22 21:11:00,43.0,29.0,-100.00,NNE,30,1.0,4.0,57,-99.99,,,-99.99,,2013-04-23 03:11:00,
2013-04-22 21:21:00,42.0,29.0,-100.00,West,265,1.0,4.0,58,-99.99,,,-99.99,,2013-04-23 03:21:00,
2013-04-22 21:33:00,42.0,28.0,-100.00,NNE,15,2.0,4.0,58,-99.99,,,-99.99,,2013-04-23 03:33:00,
2013-04-22 21:43:00,41.0,28.0,-100.00,North,5,1.0,4.0,59,-99.99,,,-99.99,,2013-04-23 03:43:00,
2013-04-22 21:52:00,41.0,29.0,-100.00,East,95,0.0,6.0,60,-99.99,,,-99.99,,2013-04-23 03:52:00,
2013-04-22 22:03:00,41.0,29.0,-100.00,East,95,0.0,6.0,60,-99.99,,,-99.99,,2013-04-23 04:03:00,
2013-04-22 22:12:00,42.0,29.0,-100.00,East,100,4.0,7.0,60,-99.99,,,-99.99,,2013-04-23 04:12:00,
2013-04-22 22:23:00,42.0,29.0,-100.00,SE,145,2.0,7.0,59,-99.99,,,-99.99,,2013-04-23 04:23:00,
2013-04-22 22:32:00,42.0,29.0,-100.00,SSW,205,1.0,4.0,59,-99.99,,,-99.99,,2013-04-23 04:32:00,
2013-04-22 22:43:00,42.0,29.0,-100.00,NNW,345,0.0,3.0,59,-99.99,,,-99.99,,2013-04-23 04:43:00,
2013-04-22 22:52:00,42.0,29.0,-100.00,SSW,205,2.0,3.0,59,-99.99,,,-99.99,,2013-04-23 04:52:00,
2013-04-22 23:02:00,42.0,29.0,-100.00,SE,130,1.0,4.0,59,-99.99,,,-99.99,,2013-04-23 05:02:00,
2013-04-22 23:12:00,42.0,30.0,-100.00,ESE,105,2.0,6.0,62,-99.99,,,-99.99,,2013-04-23 05:12:00,
2013-04-22 23:22:00,41.0,31.0,-100.00,East,80,4.0,5.0,65,-99.99,,,-99.99,,2013-04-23 05:22:00,
2013-04-22 23:32:00,41.0,31.0,-100.00,ENE,70,2.0,6.0,69,-99.99,,,-99.99,,2013-04-23 05:32:00,
2013-04-22 23:42:00,40.0,32.0,-100.00,North,0,1.0,2.0,73,-99.99,,,-99.99,,2013-04-23 05:42:00,
2013-04-22 23:52:00,40.0,33.0,-100.00,WSW,245,1.0,2.0,77,-99.99,,,-99.99,,2013-04-23 05:52:00,